KBIH/BIH METAR and TAF weather

Enter ICAO airport designator
Station Type Date Time Source
KBIH METAR 2021/02/24 16:56 UTC NOAA

KBIH 241656Z AUTO 29005KT 10SM CLR 10/M14 A3015 RMK AO2 SLP199 T01001144


Station Type Date Time Source
KBIH Decoded METAR 2021/02/24 16:56 UTC NOAA

BISHOP AIRPORT, CA, United States (KBIH) 37-22N 118-22W 1253M
Feb 24, 2021 - 11:56 AM EST / 2021.02.24 1656 UTC
Wind: from the WNW (290 degrees) at 6 MPH (5 KT):0
Visibility: 10 mile(s):0
Sky conditions: clear
Temperature: 50.0 F (10.0 C)
Dew Point: 6.1 F (-14.4 C)
Relative Humidity: 16%
Pressure (altimeter): 30.15 in. Hg (1020 hPa)
ob: KBIH 241656Z AUTO 29005KT 10SM CLR 10/M14 A3015 RMK AO2 SLP199 T01001144
cycle: 17

Station Type Date Time Source
KBIH TAF 2021/02/24 18:24 UTC NOAA

TAF KBIH 241721Z 2418/2518 35010G18KT P6SM SKC
FM242300 35022G32KT P6SM FEW250
FM250500 01016G26KT P6SM SKC
FM251000 34009KT P6SM SKC

Example: see airport list